sensor_id;sensor_type;location;lat;lon;timestamp;temperature;humidity
54082;DHT22;39986;50.770;0.266;2022-12-07T00:01:34;4.50;99.90
54082;DHT22;39986;50.770;0.266;2022-12-07T00:04:00;4.50;99.90
54082;DHT22;39986;50.770;0.266;2022-12-07T00:06:30;4.50;99.90
54082;DHT22;39986;50.770;0.266;2022-12-07T00:08:56;4.50;99.90
54082;DHT22;39986;50.770;0.266;2022-12-07T00:11:22;4.40;99.90
54082;DHT22;39986;50.770;0.266;2022-12-07T00:13:55;4.40;99.90
54082;DHT22;39986;50.770;0.266;2022-12-07T00:16:22;4.40;99.90
54082;DHT22;39986;50.770;0.266;2022-12-07T00:18:48;4.30;99.90
54082;DHT22;39986;50.770;0.266;2022-12-07T00:21:15;4.30;99.90
54082;DHT22;39986;50.770;0.266;2022-12-07T00:23:41;4.30;99.90
54082;DHT22;39986;50.770;0.266;2022-12-07T00:26:08;4.30;99.90
54082;DHT22;39986;50.770;0.266;2022-12-07T00:28:36;4.30;99.90
54082;DHT22;39986;50.770;0.266;2022-12-07T00:31:06;4.30;99.90
54082;DHT22;39986;50.770;0.266;2022-12-07T00:33:33;4.30;99.90
54082;DHT22;39986;50.770;0.266;2022-12-07T00:35:59;4.30;99.90
54082;DHT22;39986;50.770;0.266;2022-12-07T00:38:26;4.40;99.90
54082;DHT22;39986;50.770;0.266;2022-12-07T00:40:58;4.40;99.90
54082;DHT22;39986;50.770;0.266;2022-12-07T00:43:24;4.40;99.90
54082;DHT22;39986;50.770;0.266;2022-12-07T00:45:50;4.40;99.90
54082;DHT22;39986;50.770;0.266;2022-12-07T00:48:15;4.40;99.90
54082;DHT22;39986;50.770;0.266;2022-12-07T00:50:41;4.30;99.90
54082;DHT22;39986;50.770;0.266;2022-12-07T00:53:06;4.30;99.90
54082;DHT22;39986;50.770;0.266;2022-12-07T00:55:35;4.30;99.90
54082;DHT22;39986;50.770;0.266;2022-12-07T00:58:00;4.30;99.90
54082;DHT22;39986;50.770;0.266;2022-12-07T01:00:26;4.30;99.90
54082;DHT22;39986;50.770;0.266;2022-12-07T01:02:51;4.20;99.90
54082;DHT22;39986;50.770;0.266;2022-12-07T01:05:18;4.30;99.90
54082;DHT22;39986;50.770;0.266;2022-12-07T01:07:43;4.30;99.90
54082;DHT22;39986;50.770;0.266;2022-12-07T01:10:09;4.20;99.90
54082;DHT22;39986;50.770;0.266;2022-12-07T01:12:35;4.30;99.90
54082;DHT22;39986;50.770;0.266;2022-12-07T01:15:00;4.20;99.90
54082;DHT22;39986;50.770;0.266;2022-12-07T01:17:26;4.20;99.90
54082;DHT22;39986;50.770;0.266;2022-12-07T01:19:51;4.20;99.90
54082;DHT22;39986;50.770;0.266;2022-12-07T01:22:17;4.10;99.90
54082;DHT22;39986;50.770;0.266;2022-12-07T01:24:42;4.30;99.90
54082;DHT22;39986;50.770;0.266;2022-12-07T01:27:08;4.40;99.90
54082;DHT22;39986;50.770;0.266;2022-12-07T01:29:33;4.10;99.90
54082;DHT22;39986;50.770;0.266;2022-12-07T01:31:59;4.10;99.90
54082;DHT22;39986;50.770;0.266;2022-12-07T01:34:24;4.10;99.90
54082;DHT22;39986;50.770;0.266;2022-12-07T01:36:50;4.10;99.90
54082;DHT22;39986;50.770;0.266;2022-12-07T01:39:15;4.10;99.90
54082;DHT22;39986;50.770;0.266;2022-12-07T01:41:41;4.10;99.90
54082;DHT22;39986;50.770;0.266;2022-12-07T01:46:37;4.00;99.90
54082;DHT22;39986;50.770;0.266;2022-12-07T01:49:03;4.00;99.90
54082;DHT22;39986;50.770;0.266;2022-12-07T01:51:31;4.00;99.90
54082;DHT22;39986;50.770;0.266;2022-12-07T01:53:56;4.10;99.90
54082;DHT22;39986;50.770;0.266;2022-12-07T01:56:23;4.00;99.90
54082;DHT22;39986;50.770;0.266;2022-12-07T01:58:50;4.00;99.90
54082;DHT22;39986;50.770;0.266;2022-12-07T02:01:16;3.90;99.90
54082;DHT22;39986;50.770;0.266;2022-12-07T02:03:42;3.90;99.90
54082;DHT22;39986;50.770;0.266;2022-12-07T02:06:08;3.80;99.90
54082;DHT22;39986;50.770;0.266;2022-12-07T02:09:00;3.90;99.90
54082;DHT22;39986;50.770;0.266;2022-12-07T02:11:27;3.80;99.90
54082;DHT22;39986;50.770;0.266;2022-12-07T02:13:53;3.90;99.90
54082;DHT22;39986;50.770;0.266;2022-12-07T02:21:56;3.90;99.90
54082;DHT22;39986;50.770;0.266;2022-12-07T02:32:27;3.80;99.90
54082;DHT22;39986;50.770;0.266;2022-12-07T02:34:59;3.80;99.90
54082;DHT22;39986;50.770;0.266;2022-12-07T02:37:29;3.80;99.90
54082;DHT22;39986;50.770;0.266;2022-12-07T02:39:59;3.70;99.90
54082;DHT22;39986;50.770;0.266;2022-12-07T02:42:30;3.70;99.90
54082;DHT22;39986;50.770;0.266;2022-12-07T02:44:57;3.70;99.90
54082;DHT22;39986;50.770;0.266;2022-12-07T02:47:23;3.80;99.90
54082;DHT22;39986;50.770;0.266;2022-12-07T02:49:50;3.70;99.90
54082;DHT22;39986;50.770;0.266;2022-12-07T02:52:15;3.80;99.90
54082;DHT22;39986;50.770;0.266;2022-12-07T02:54:41;3.80;99.90
54082;DHT22;39986;50.770;0.266;2022-12-07T02:57:21;5.30;99.90
54082;DHT22;39986;50.770;0.266;2022-12-07T03:00:00;3.80;99.90
54082;DHT22;39986;50.770;0.266;2022-12-07T03:02:32;3.70;99.90
54082;DHT22;39986;50.770;0.266;2022-12-07T03:07:33;3.70;99.90
54082;DHT22;39986;50.770;0.266;2022-12-07T03:12:59;3.70;99.90
54082;DHT22;39986;50.770;0.266;2022-12-07T03:17:53;3.60;99.90
54082;DHT22;39986;50.770;0.266;2022-12-07T03:20:20;3.50;99.90
54082;DHT22;39986;50.770;0.266;2022-12-07T03:22:47;3.60;99.90
54082;DHT22;39986;50.770;0.266;2022-12-07T03:25:13;3.50;99.90
54082;DHT22;39986;50.770;0.266;2022-12-07T03:30:16;3.50;99.90
54082;DHT22;39986;50.770;0.266;2022-12-07T03:32:44;3.50;99.90
54082;DHT22;39986;50.770;0.266;2022-12-07T03:35:21;3.50;99.90
54082;DHT22;39986;50.770;0.266;2022-12-07T03:38:01;3.50;99.90
54082;DHT22;39986;50.770;0.266;2022-12-07T03:40:34;3.50;99.90
54082;DHT22;39986;50.770;0.266;2022-12-07T03:43:01;3.60;99.90
54082;DHT22;39986;50.770;0.266;2022-12-07T03:48:30;3.50;99.90
54082;DHT22;39986;50.770;0.266;2022-12-07T03:51:01;3.50;99.90
54082;DHT22;39986;50.770;0.266;2022-12-07T03:56:18;3.40;99.90
54082;DHT22;39986;50.770;0.266;2022-12-07T03:58:44;3.40;99.90
54082;DHT22;39986;50.770;0.266;2022-12-07T04:01:10;3.40;99.90
54082;DHT22;39986;50.770;0.266;2022-12-07T04:03:36;3.40;99.90
54082;DHT22;39986;50.770;0.266;2022-12-07T04:06:01;3.40;99.90
54082;DHT22;39986;50.770;0.266;2022-12-07T04:08:27;3.40;99.90
54082;DHT22;39986;50.770;0.266;2022-12-07T04:10:52;3.40;99.90
54082;DHT22;39986;50.770;0.266;2022-12-07T04:13:18;3.30;99.90
54082;DHT22;39986;50.770;0.266;2022-12-07T04:15:43;3.30;99.90
54082;DHT22;39986;50.770;0.266;2022-12-07T04:18:09;3.30;99.90
54082;DHT22;39986;50.770;0.266;2022-12-07T04:20:34;3.30;99.90
54082;DHT22;39986;50.770;0.266;2022-12-07T04:23:00;3.30;99.90
54082;DHT22;39986;50.770;0.266;2022-12-07T04:25:25;3.30;99.90
54082;DHT22;39986;50.770;0.266;2022-12-07T04:27:51;3.40;99.90
54082;DHT22;39986;50.770;0.266;2022-12-07T04:30:16;3.30;99.90
54082;DHT22;39986;50.770;0.266;2022-12-07T04:32:42;3.30;99.90
54082;DHT22;39986;50.770;0.266;2022-12-07T04:35:07;3.30;99.90
54082;DHT22;39986;50.770;0.266;2022-12-07T04:37:33;3.30;99.90
54082;DHT22;39986;50.770;0.266;2022-12-07T04:39:59;3.30;99.90
54082;DHT22;39986;50.770;0.266;2022-12-07T04:42:24;3.30;99.90
54082;DHT22;39986;50.770;0.266;2022-12-07T04:44:50;3.20;99.90
54082;DHT22;39986;50.770;0.266;2022-12-07T04:47:16;3.30;99.90
54082;DHT22;39986;50.770;0.266;2022-12-07T04:49:41;3.20;99.90
54082;DHT22;39986;50.770;0.266;2022-12-07T04:52:07;3.20;99.90
54082;DHT22;39986;50.770;0.266;2022-12-07T04:54:32;3.20;99.90
54082;DHT22;39986;50.770;0.266;2022-12-07T04:56:58;3.20;99.90
54082;DHT22;39986;50.770;0.266;2022-12-07T04:59:23;3.20;99.90
54082;DHT22;39986;50.770;0.266;2022-12-07T05:01:49;3.20;99.90
54082;DHT22;39986;50.770;0.266;2022-12-07T05:04:14;3.10;99.90
54082;DHT22;39986;50.770;0.266;2022-12-07T05:06:41;3.10;99.90
54082;DHT22;39986;50.770;0.266;2022-12-07T05:09:08;3.10;99.90
54082;DHT22;39986;50.770;0.266;2022-12-07T05:11:33;3.20;99.90
54082;DHT22;39986;50.770;0.266;2022-12-07T05:16:34;3.10;99.90
54082;DHT22;39986;50.770;0.266;2022-12-07T05:19:00;3.10;99.90
54082;DHT22;39986;50.770;0.266;2022-12-07T05:21:25;3.20;99.90
54082;DHT22;39986;50.770;0.266;2022-12-07T05:23:51;3.20;99.90
54082;DHT22;39986;50.770;0.266;2022-12-07T05:26:17;3.20;99.90
54082;DHT22;39986;50.770;0.266;2022-12-07T05:28:42;3.20;99.90
54082;DHT22;39986;50.770;0.266;2022-12-07T05:31:08;3.20;99.90
54082;DHT22;39986;50.770;0.266;2022-12-07T05:33:33;3.10;99.90
54082;DHT22;39986;50.770;0.266;2022-12-07T05:35:59;3.20;99.90
54082;DHT22;39986;50.770;0.266;2022-12-07T05:38:31;3.10;99.90
54082;DHT22;39986;50.770;0.266;2022-12-07T05:41:01;3.10;99.90
54082;DHT22;39986;50.770;0.266;2022-12-07T05:43:28;3.00;99.90
54082;DHT22;39986;50.770;0.266;2022-12-07T05:45:53;3.10;99.90
54082;DHT22;39986;50.770;0.266;2022-12-07T05:48:19;3.00;99.90
54082;DHT22;39986;50.770;0.266;2022-12-07T05:50:47;3.00;99.90
54082;DHT22;39986;50.770;0.266;2022-12-07T05:53:12;2.90;99.90
54082;DHT22;39986;50.770;0.266;2022-12-07T05:55:38;2.90;99.90
54082;DHT22;39986;50.770;0.266;2022-12-07T05:58:03;3.00;99.90
54082;DHT22;39986;50.770;0.266;2022-12-07T06:00:47;3.00;99.90
54082;DHT22;39986;50.770;0.266;2022-12-07T06:03:13;2.90;99.90
54082;DHT22;39986;50.770;0.266;2022-12-07T06:05:38;2.90;99.90
54082;DHT22;39986;50.770;0.266;2022-12-07T06:08:04;2.90;99.90
54082;DHT22;39986;50.770;0.266;2022-12-07T06:10:29;2.90;99.90
54082;DHT22;39986;50.770;0.266;2022-12-07T06:12:55;2.90;99.90
54082;DHT22;39986;50.770;0.266;2022-12-07T06:15:20;2.90;99.90
54082;DHT22;39986;50.770;0.266;2022-12-07T06:17:48;2.80;99.90
54082;DHT22;39986;50.770;0.266;2022-12-07T06:20:13;2.80;99.90
54082;DHT22;39986;50.770;0.266;2022-12-07T06:22:39;2.80;99.90
54082;DHT22;39986;50.770;0.266;2022-12-07T06:25:04;2.80;99.90
54082;DHT22;39986;50.770;0.266;2022-12-07T06:27:30;2.80;99.90
54082;DHT22;39986;50.770;0.266;2022-12-07T06:29:58;2.90;99.90
54082;DHT22;39986;50.770;0.266;2022-12-07T06:32:23;2.90;99.90
54082;DHT22;39986;50.770;0.266;2022-12-07T06:34:49;2.90;99.90
54082;DHT22;39986;50.770;0.266;2022-12-07T06:37:14;2.90;99.90
54082;DHT22;39986;50.770;0.266;2022-12-07T06:39:40;2.90;99.90
54082;DHT22;39986;50.770;0.266;2022-12-07T06:42:05;2.90;99.90
54082;DHT22;39986;50.770;0.266;2022-12-07T06:44:31;2.90;99.90
54082;DHT22;39986;50.770;0.266;2022-12-07T06:46:56;3.00;99.90
54082;DHT22;39986;50.770;0.266;2022-12-07T06:49:22;3.00;99.90
54082;DHT22;39986;50.770;0.266;2022-12-07T06:51:47;3.00;99.90
54082;DHT22;39986;50.770;0.266;2022-12-07T06:54:13;3.00;99.90
54082;DHT22;39986;50.770;0.266;2022-12-07T06:56:39;3.90;99.90
54082;DHT22;39986;50.770;0.266;2022-12-07T06:59:05;3.00;99.90
54082;DHT22;39986;50.770;0.266;2022-12-07T07:01:31;2.90;99.90
54082;DHT22;39986;50.770;0.266;2022-12-07T07:03:57;3.00;99.90
54082;DHT22;39986;50.770;0.266;2022-12-07T07:06:27;2.90;99.90
54082;DHT22;39986;50.770;0.266;2022-12-07T07:08:52;2.80;99.90
54082;DHT22;39986;50.770;0.266;2022-12-07T07:11:18;2.80;99.90
54082;DHT22;39986;50.770;0.266;2022-12-07T07:13:44;2.80;99.90
54082;DHT22;39986;50.770;0.266;2022-12-07T07:16:09;2.80;99.90
54082;DHT22;39986;50.770;0.266;2022-12-07T07:18:35;2.80;99.90
54082;DHT22;39986;50.770;0.266;2022-12-07T07:21:01;2.80;99.90
54082;DHT22;39986;50.770;0.266;2022-12-07T07:23:27;2.80;99.90
54082;DHT22;39986;50.770;0.266;2022-12-07T07:25:53;2.80;99.90
54082;DHT22;39986;50.770;0.266;2022-12-07T07:28:18;2.80;99.90
54082;DHT22;39986;50.770;0.266;2022-12-07T07:30:44;2.90;99.90
54082;DHT22;39986;50.770;0.266;2022-12-07T07:33:10;3.00;99.90
54082;DHT22;39986;50.770;0.266;2022-12-07T07:35:35;3.00;99.90
54082;DHT22;39986;50.770;0.266;2022-12-07T07:38:01;3.00;99.90
54082;DHT22;39986;50.770;0.266;2022-12-07T07:40:27;2.90;99.90
54082;DHT22;39986;50.770;0.266;2022-12-07T07:42:54;2.90;99.90
54082;DHT22;39986;50.770;0.266;2022-12-07T07:45:21;3.00;99.90
54082;DHT22;39986;50.770;0.266;2022-12-07T07:47:46;3.00;99.90
54082;DHT22;39986;50.770;0.266;2022-12-07T07:50:12;3.00;99.90
54082;DHT22;39986;50.770;0.266;2022-12-07T07:52:38;3.00;99.90
54082;DHT22;39986;50.770;0.266;2022-12-07T07:55:04;3.10;99.90
54082;DHT22;39986;50.770;0.266;2022-12-07T07:57:30;3.10;99.90
54082;DHT22;39986;50.770;0.266;2022-12-07T07:59:55;3.10;99.90
54082;DHT22;39986;50.770;0.266;2022-12-07T08:02:21;3.10;99.90
54082;DHT22;39986;50.770;0.266;2022-12-07T08:04:47;3.10;99.90
54082;DHT22;39986;50.770;0.266;2022-12-07T08:07:14;3.20;99.90
54082;DHT22;39986;50.770;0.266;2022-12-07T08:09:40;3.20;99.90
54082;DHT22;39986;50.770;0.266;2022-12-07T08:12:06;3.20;99.90
54082;DHT22;39986;50.770;0.266;2022-12-07T08:14:32;3.30;99.90
54082;DHT22;39986;50.770;0.266;2022-12-07T08:16:57;3.30;99.90
54082;DHT22;39986;50.770;0.266;2022-12-07T08:19:23;3.30;99.90
54082;DHT22;39986;50.770;0.266;2022-12-07T08:21:49;3.30;99.90
54082;DHT22;39986;50.770;0.266;2022-12-07T08:24:14;3.40;99.90
54082;DHT22;39986;50.770;0.266;2022-12-07T08:26:40;3.40;99.90
54082;DHT22;39986;50.770;0.266;2022-12-07T08:29:06;3.40;99.90
54082;DHT22;39986;50.770;0.266;2022-12-07T08:31:31;3.40;99.90
54082;DHT22;39986;50.770;0.266;2022-12-07T08:33:57;3.50;99.90
54082;DHT22;39986;50.770;0.266;2022-12-07T08:36:22;3.50;99.90
54082;DHT22;39986;50.770;0.266;2022-12-07T08:38:48;3.60;99.90
54082;DHT22;39986;50.770;0.266;2022-12-07T08:41:14;3.70;99.90
54082;DHT22;39986;50.770;0.266;2022-12-07T08:43:40;3.70;99.90
54082;DHT22;39986;50.770;0.266;2022-12-07T08:46:28;3.80;99.90
54082;DHT22;39986;50.770;0.266;2022-12-07T08:48:54;3.80;99.90
54082;DHT22;39986;50.770;0.266;2022-12-07T08:51:21;4.70;99.90
54082;DHT22;39986;50.770;0.266;2022-12-07T08:53:47;3.90;99.90
54082;DHT22;39986;50.770;0.266;2022-12-07T08:56:13;4.00;99.90
54082;DHT22;39986;50.770;0.266;2022-12-07T08:58:39;4.10;99.90
54082;DHT22;39986;50.770;0.266;2022-12-07T09:01:05;4.20;99.90
54082;DHT22;39986;50.770;0.266;2022-12-07T09:03:32;4.20;99.90
54082;DHT22;39986;50.770;0.266;2022-12-07T09:05:57;4.20;99.90
54082;DHT22;39986;50.770;0.266;2022-12-07T09:08:25;4.30;99.90
54082;DHT22;39986;50.770;0.266;2022-12-07T09:10:51;4.40;99.90
54082;DHT22;39986;50.770;0.266;2022-12-07T09:13:17;4.40;99.90
54082;DHT22;39986;50.770;0.266;2022-12-07T09:15:42;4.60;99.90
54082;DHT22;39986;50.770;0.266;2022-12-07T09:18:08;4.70;99.90
54082;DHT22;39986;50.770;0.266;2022-12-07T09:20:33;4.70;99.90
54082;DHT22;39986;50.770;0.266;2022-12-07T09:22:59;4.90;99.90
54082;DHT22;39986;50.770;0.266;2022-12-07T09:25:25;5.00;99.90
54082;DHT22;39986;50.770;0.266;2022-12-07T09:27:57;5.10;99.90
54082;DHT22;39986;50.770;0.266;2022-12-07T09:30:24;5.10;99.90
54082;DHT22;39986;50.770;0.266;2022-12-07T09:32:51;5.10;99.90
54082;DHT22;39986;50.770;0.266;2022-12-07T09:35:17;6.80;99.90
54082;DHT22;39986;50.770;0.266;2022-12-07T09:37:43;6.50;99.90
54082;DHT22;39986;50.770;0.266;2022-12-07T09:40:08;5.30;99.90
54082;DHT22;39986;50.770;0.266;2022-12-07T09:42:38;5.30;99.90
54082;DHT22;39986;50.770;0.266;2022-12-07T09:45:05;5.40;99.90
54082;DHT22;39986;50.770;0.266;2022-12-07T09:47:31;5.60;99.90
54082;DHT22;39986;50.770;0.266;2022-12-07T09:50:07;5.70;99.90
54082;DHT22;39986;50.770;0.266;2022-12-07T09:52:37;5.80;99.90
54082;DHT22;39986;50.770;0.266;2022-12-07T09:55:02;6.00;99.90
54082;DHT22;39986;50.770;0.266;2022-12-07T09:57:29;6.20;99.90
54082;DHT22;39986;50.770;0.266;2022-12-07T09:59:56;7.80;99.90
54082;DHT22;39986;50.770;0.266;2022-12-07T10:02:28;7.10;99.90
54082;DHT22;39986;50.770;0.266;2022-12-07T10:04:59;7.40;99.90
54082;DHT22;39986;50.770;0.266;2022-12-07T10:07:24;7.90;99.90
54082;DHT22;39986;50.770;0.266;2022-12-07T10:09:50;8.60;99.90
54082;DHT22;39986;50.770;0.266;2022-12-07T10:12:15;8.50;99.90
54082;DHT22;39986;50.770;0.266;2022-12-07T10:14:54;9.10;99.90
54082;DHT22;39986;50.770;0.266;2022-12-07T10:17:38;8.30;99.90
54082;DHT22;39986;50.770;0.266;2022-12-07T10:20:17;10.30;99.90
54082;DHT22;39986;50.770;0.266;2022-12-07T10:22:59;12.10;99.90
54082;DHT22;39986;50.770;0.266;2022-12-07T10:25:27;14.00;99.90
54082;DHT22;39986;50.770;0.266;2022-12-07T10:27:59;15.10;99.90
54082;DHT22;39986;50.770;0.266;2022-12-07T10:30:25;15.50;99.90
54082;DHT22;39986;50.770;0.266;2022-12-07T10:32:51;15.40;99.90
54082;DHT22;39986;50.770;0.266;2022-12-07T10:35:18;14.90;99.90
54082;DHT22;39986;50.770;0.266;2022-12-07T10:37:44;14.90;99.90
54082;DHT22;39986;50.770;0.266;2022-12-07T10:43:02;14.10;99.90
54082;DHT22;39986;50.770;0.266;2022-12-07T10:45:28;12.80;99.90
54082;DHT22;39986;50.770;0.266;2022-12-07T10:48:15;11.90;99.90
54082;DHT22;39986;50.770;0.266;2022-12-07T11:20:41;19.30;99.90
54082;DHT22;39986;50.770;0.266;2022-12-07T11:26:05;22.00;96.10
54082;DHT22;39986;50.770;0.266;2022-12-07T11:28:40;22.30;93.70
54082;DHT22;39986;50.770;0.266;2022-12-07T11:31:17;21.00;93.80
54082;DHT22;39986;50.770;0.266;2022-12-07T11:34:05;20.40;95.20
54082;DHT22;39986;50.770;0.266;2022-12-07T11:36:41;19.90;95.50
54082;DHT22;39986;50.770;0.266;2022-12-07T11:39:30;20.50;96.70
54082;DHT22;39986;50.770;0.266;2022-12-07T11:42:12;22.70;93.50
54082;DHT22;39986;50.770;0.266;2022-12-07T11:44:47;23.60;91.90
54082;DHT22;39986;50.770;0.266;2022-12-07T11:52:26;27.10;73.20
54082;DHT22;39986;50.770;0.266;2022-12-07T11:54:53;27.80;67.70
54082;DHT22;39986;50.770;0.266;2022-12-07T11:57:24;28.40;62.00
54082;DHT22;39986;50.770;0.266;2022-12-07T11:59:52;29.00;59.70
54082;DHT22;39986;50.770;0.266;2022-12-07T12:02:22;29.50;57.90
54082;DHT22;39986;50.770;0.266;2022-12-07T12:07:40;30.30;54.50
54082;DHT22;39986;50.770;0.266;2022-12-07T12:10:15;31.20;51.50
54082;DHT22;39986;50.770;0.266;2022-12-07T12:18:01;30.50;51.40
54082;DHT22;39986;50.770;0.266;2022-12-07T12:25:40;29.50;50.70
54082;DHT22;39986;50.770;0.266;2022-12-07T12:28:17;28.00;49.80
54082;DHT22;39986;50.770;0.266;2022-12-07T12:30:44;25.90;52.90
54082;DHT22;39986;50.770;0.266;2022-12-07T12:35:48;26.20;54.30
54082;DHT22;39986;50.770;0.266;2022-12-07T12:38:33;26.60;52.80
54082;DHT22;39986;50.770;0.266;2022-12-07T12:41:00;26.80;52.80
54082;DHT22;39986;50.770;0.266;2022-12-07T12:48:52;30.10;49.40
54082;DHT22;39986;50.770;0.266;2022-12-07T12:51:36;31.30;49.40
54082;DHT22;39986;50.770;0.266;2022-12-07T12:54:04;31.70;47.80
54082;DHT22;39986;50.770;0.266;2022-12-07T12:56:35;32.40;46.80
54082;DHT22;39986;50.770;0.266;2022-12-07T12:59:25;32.50;44.70
54082;DHT22;39986;50.770;0.266;2022-12-07T13:01:51;31.40;44.30
54082;DHT22;39986;50.770;0.266;2022-12-07T13:04:39;29.60;45.50
54082;DHT22;39986;50.770;0.266;2022-12-07T13:07:03;28.80;48.40
54082;DHT22;39986;50.770;0.266;2022-12-07T13:09:30;28.70;47.90
54082;DHT22;39986;50.770;0.266;2022-12-07T13:11:58;29.10;48.40
54082;DHT22;39986;50.770;0.266;2022-12-07T13:17:05;27.30;49.20
54082;DHT22;39986;50.770;0.266;2022-12-07T13:19:54;27.40;50.10
54082;DHT22;39986;50.770;0.266;2022-12-07T13:22:51;28.30;50.90
54082;DHT22;39986;50.770;0.266;2022-12-07T13:27:48;30.60;47.10
54082;DHT22;39986;50.770;0.266;2022-12-07T13:30:15;31.00;45.80
54082;DHT22;39986;50.770;0.266;2022-12-07T13:32:41;31.40;44.70
54082;DHT22;39986;50.770;0.266;2022-12-07T13:35:27;31.30;45.60
54082;DHT22;39986;50.770;0.266;2022-12-07T13:37:52;31.50;46.90
54082;DHT22;39986;50.770;0.266;2022-12-07T13:40:20;31.60;46.00
54082;DHT22;39986;50.770;0.266;2022-12-07T13:42:46;32.10;46.80
54082;DHT22;39986;50.770;0.266;2022-12-07T13:45:24;32.10;44.90
54082;DHT22;39986;50.770;0.266;2022-12-07T13:48:10;32.00;44.70
54082;DHT22;39986;50.770;0.266;2022-12-07T13:50:39;31.70;45.00
54082;DHT22;39986;50.770;0.266;2022-12-07T13:53:07;31.80;45.40
54082;DHT22;39986;50.770;0.266;2022-12-07T13:55:35;31.70;44.50
54082;DHT22;39986;50.770;0.266;2022-12-07T13:58:01;31.90;43.60
54082;DHT22;39986;50.770;0.266;2022-12-07T14:00:27;32.10;43.60
54082;DHT22;39986;50.770;0.266;2022-12-07T14:03:00;32.10;42.90
54082;DHT22;39986;50.770;0.266;2022-12-07T14:05:29;31.60;44.20
54082;DHT22;39986;50.770;0.266;2022-12-07T14:10:34;31.40;43.90
54082;DHT22;39986;50.770;0.266;2022-12-07T14:13:01;30.50;42.00
54082;DHT22;39986;50.770;0.266;2022-12-07T14:15:28;29.50;43.20
54082;DHT22;39986;50.770;0.266;2022-12-07T14:17:55;27.90;45.40
54082;DHT22;39986;50.770;0.266;2022-12-07T14:20:31;25.60;47.90
54082;DHT22;39986;50.770;0.266;2022-12-07T14:22:57;23.10;50.40
54082;DHT22;39986;50.770;0.266;2022-12-07T14:25:23;20.30;56.20
54082;DHT22;39986;50.770;0.266;2022-12-07T14:27:56;18.10;61.40
54082;DHT22;39986;50.770;0.266;2022-12-07T14:30:22;16.40;76.60
54082;DHT22;39986;50.770;0.266;2022-12-07T14:32:53;15.00;90.20
54082;DHT22;39986;50.770;0.266;2022-12-07T14:35:19;13.90;95.00
54082;DHT22;39986;50.770;0.266;2022-12-07T14:37:45;13.10;99.90
54082;DHT22;39986;50.770;0.266;2022-12-07T14:40:16;12.40;99.90
54082;DHT22;39986;50.770;0.266;2022-12-07T14:42:41;11.80;99.90
54082;DHT22;39986;50.770;0.266;2022-12-07T14:45:12;11.30;99.90
54082;DHT22;39986;50.770;0.266;2022-12-07T14:47:38;11.10;99.90
54082;DHT22;39986;50.770;0.266;2022-12-07T14:50:04;10.70;99.90
54082;DHT22;39986;50.770;0.266;2022-12-07T14:52:29;10.30;99.90
54082;DHT22;39986;50.770;0.266;2022-12-07T14:54:58;10.10;99.90
54082;DHT22;39986;50.770;0.266;2022-12-07T14:57:23;9.90;99.90
54082;DHT22;39986;50.770;0.266;2022-12-07T14:59:49;9.90;99.90
54082;DHT22;39986;50.770;0.266;2022-12-07T15:02:15;9.70;99.90
54082;DHT22;39986;50.770;0.266;2022-12-07T15:04:40;9.60;99.90
54082;DHT22;39986;50.770;0.266;2022-12-07T15:07:09;9.40;99.90
54082;DHT22;39986;50.770;0.266;2022-12-07T15:09:35;9.30;99.90
54082;DHT22;39986;50.770;0.266;2022-12-07T15:12:01;9.20;99.90
54082;DHT22;39986;50.770;0.266;2022-12-07T15:14:28;9.10;99.90
54082;DHT22;39986;50.770;0.266;2022-12-07T15:16:54;9.00;99.90
54082;DHT22;39986;50.770;0.266;2022-12-07T15:19:20;8.90;99.90
54082;DHT22;39986;50.770;0.266;2022-12-07T15:21:50;8.80;99.90
54082;DHT22;39986;50.770;0.266;2022-12-07T15:24:16;8.70;99.90
54082;DHT22;39986;50.770;0.266;2022-12-07T15:26:42;8.50;99.90
54082;DHT22;39986;50.770;0.266;2022-12-07T15:29:07;8.50;99.90
54082;DHT22;39986;50.770;0.266;2022-12-07T15:31:33;8.40;99.90
54082;DHT22;39986;50.770;0.266;2022-12-07T15:33:59;8.30;99.90
54082;DHT22;39986;50.770;0.266;2022-12-07T15:36:26;8.20;99.90
54082;DHT22;39986;50.770;0.266;2022-12-07T15:38:52;8.10;99.90
54082;DHT22;39986;50.770;0.266;2022-12-07T15:41:18;8.00;99.90
54082;DHT22;39986;50.770;0.266;2022-12-07T15:43:44;7.90;99.90
54082;DHT22;39986;50.770;0.266;2022-12-07T15:46:33;7.80;99.90
54082;DHT22;39986;50.770;0.266;2022-12-07T15:48:59;7.60;99.90
54082;DHT22;39986;50.770;0.266;2022-12-07T15:57:07;7.30;99.90
54082;DHT22;39986;50.770;0.266;2022-12-07T15:59:33;7.30;99.90
54082;DHT22;39986;50.770;0.266;2022-12-07T16:01:58;7.60;99.90
54082;DHT22;39986;50.770;0.266;2022-12-07T16:04:24;7.20;99.90
54082;DHT22;39986;50.770;0.266;2022-12-07T16:06:54;7.10;99.90
54082;DHT22;39986;50.770;0.266;2022-12-07T16:09:20;7.10;99.90
54082;DHT22;39986;50.770;0.266;2022-12-07T16:11:46;7.00;99.90
54082;DHT22;39986;50.770;0.266;2022-12-07T16:14:11;6.90;99.90
54082;DHT22;39986;50.770;0.266;2022-12-07T16:16:37;6.80;99.90
54082;DHT22;39986;50.770;0.266;2022-12-07T16:19:02;6.60;99.90
54082;DHT22;39986;50.770;0.266;2022-12-07T16:21:28;6.60;99.90
54082;DHT22;39986;50.770;0.266;2022-12-07T16:23:53;6.60;99.90
54082;DHT22;39986;50.770;0.266;2022-12-07T16:26:21;6.60;99.90
54082;DHT22;39986;50.770;0.266;2022-12-07T16:28:50;6.50;99.90
54082;DHT22;39986;50.770;0.266;2022-12-07T16:31:16;6.50;99.90
54082;DHT22;39986;50.770;0.266;2022-12-07T16:33:42;6.50;99.90
54082;DHT22;39986;50.770;0.266;2022-12-07T16:36:08;6.50;99.90
54082;DHT22;39986;50.770;0.266;2022-12-07T16:38:35;6.40;99.90
54082;DHT22;39986;50.770;0.266;2022-12-07T16:41:00;7.10;99.90
54082;DHT22;39986;50.770;0.266;2022-12-07T16:43:26;6.30;99.90
54082;DHT22;39986;50.770;0.266;2022-12-07T16:45:51;6.30;99.90
54082;DHT22;39986;50.770;0.266;2022-12-07T16:48:17;6.20;99.90
54082;DHT22;39986;50.770;0.266;2022-12-07T16:50:42;6.20;99.90
54082;DHT22;39986;50.770;0.266;2022-12-07T16:53:08;6.20;99.90
54082;DHT22;39986;50.770;0.266;2022-12-07T16:55:41;6.10;99.90
54082;DHT22;39986;50.770;0.266;2022-12-07T16:58:07;6.10;99.90
54082;DHT22;39986;50.770;0.266;2022-12-07T17:00:33;6.00;99.90
54082;DHT22;39986;50.770;0.266;2022-12-07T17:03:02;6.00;99.90
54082;DHT22;39986;50.770;0.266;2022-12-07T17:05:31;6.00;99.90
54082;DHT22;39986;50.770;0.266;2022-12-07T17:07:57;6.00;99.90
54082;DHT22;39986;50.770;0.266;2022-12-07T17:10:23;6.70;99.90
54082;DHT22;39986;50.770;0.266;2022-12-07T17:12:49;5.90;99.90
54082;DHT22;39986;50.770;0.266;2022-12-07T17:15:14;5.80;99.90
54082;DHT22;39986;50.770;0.266;2022-12-07T17:20:09;5.70;99.90
54082;DHT22;39986;50.770;0.266;2022-12-07T17:22:34;5.70;99.90
54082;DHT22;39986;50.770;0.266;2022-12-07T17:25:00;5.70;99.90
54082;DHT22;39986;50.770;0.266;2022-12-07T17:27:25;5.70;99.90
54082;DHT22;39986;50.770;0.266;2022-12-07T17:29:51;5.70;99.90
54082;DHT22;39986;50.770;0.266;2022-12-07T17:32:16;6.70;99.90
54082;DHT22;39986;50.770;0.266;2022-12-07T17:34:42;5.70;99.90
54082;DHT22;39986;50.770;0.266;2022-12-07T17:37:07;5.70;99.90
54082;DHT22;39986;50.770;0.266;2022-12-07T17:39:33;5.70;99.90